createdAt,value
2022-08-09T00:00:00.078Z,87.70
2022-08-09T00:02:28.308Z,88.10
2022-08-09T00:05:03.164Z,88.30
2022-08-09T00:07:44.864Z,88.20
2022-08-09T00:10:11.891Z,88.40
2022-08-09T00:12:51.746Z,88.70
2022-08-09T00:15:26.819Z,89.00
2022-08-09T00:18:07.608Z,89.20
2022-08-09T00:20:42.403Z,89.30
2022-08-09T00:23:55.723Z,89.10
2022-08-09T00:26:05.104Z,89.30
2022-08-09T00:28:32.211Z,89.40
2022-08-09T00:31:02.413Z,89.60
2022-08-09T00:33:51.478Z,89.90
2022-08-09T00:36:22.552Z,90.00
2022-08-09T00:38:56.408Z,90.00
2022-08-09T00:44:15.387Z,90.00
2022-08-09T00:44:20.468Z,90.20
2022-08-09T00:46:56.088Z,90.20
2022-08-09T00:49:24.746Z,90.20
2022-08-09T00:51:56.423Z,90.30
2022-08-09T00:54:31.661Z,90.40
2022-08-09T00:57:08.981Z,90.40
2022-08-09T00:59:46.019Z,90.40
2022-08-09T01:02:29.438Z,90.50
2022-08-09T01:05:05.384Z,90.60
2022-08-09T01:08:13.712Z,90.70
2022-08-09T01:10:51.222Z,90.70
2022-08-09T01:13:18.620Z,90.70
2022-08-09T01:15:52.927Z,90.80
2022-08-09T01:18:30.191Z,90.90
2022-08-09T01:21:16.767Z,91.00
2022-08-09T01:24:04.993Z,91.10
2022-08-09T01:26:31.856Z,91.10
2022-08-09T01:28:59.219Z,91.20
2022-08-09T01:32:29.572Z,91.20
2022-08-09T01:34:16.922Z,91.20
2022-08-09T01:36:44.996Z,91.30
2022-08-09T01:39:14.306Z,91.40
2022-08-09T01:41:53.701Z,91.40
2022-08-09T01:44:29.020Z,91.40
2022-08-09T01:46:57.388Z,91.40
2022-08-09T01:49:28.004Z,91.30
2022-08-09T01:52:07.849Z,91.40
2022-08-09T01:54:54.854Z,91.50
2022-08-09T01:57:24.884Z,91.50
2022-08-09T01:59:53.292Z,91.60
2022-08-09T02:02:30.894Z,91.60
2022-08-09T02:05:04.666Z,91.70
2022-08-09T02:08:35.805Z,91.70
2022-08-09T02:10:30.178Z,91.70
2022-08-09T02:12:57.474Z,91.80
2022-08-09T02:15:27.048Z,91.80
2022-08-09T02:18:15.160Z,91.90
2022-08-09T02:20:45.380Z,92.00
2022-08-09T02:23:16.954Z,92.00
2022-08-09T02:25:52.743Z,92.10
2022-08-09T02:28:30.087Z,92.20
2022-08-09T02:31:20.221Z,92.20
2022-08-09T02:34:07.022Z,92.30
2022-08-09T02:36:37.643Z,92.30
2022-08-09T02:39:14.471Z,92.40
2022-08-09T02:41:53.749Z,92.40
2022-08-09T02:44:30.709Z,92.30
2022-08-09T02:47:01.499Z,92.30
2022-08-09T02:49:41.205Z,92.40
2022-08-09T02:52:11.715Z,92.40
2022-08-09T02:54:51.166Z,92.40
2022-08-09T02:57:23.148Z,92.40
2022-08-09T03:00:20.872Z,92.50
2022-08-09T03:02:39.039Z,92.60
2022-08-09T03:05:26.321Z,92.60
2022-08-09T03:07:55.442Z,92.60
2022-08-09T03:10:22.956Z,92.60
2022-08-09T03:12:52.219Z,92.70
2022-08-09T03:15:20.747Z,92.70
2022-08-09T03:17:57.789Z,92.80
2022-08-09T03:20:29.444Z,92.80
2022-08-09T03:22:58.401Z,92.70
2022-08-09T03:25:57.946Z,92.80
2022-08-09T03:28:27.083Z,92.80
2022-08-09T03:30:54.880Z,92.80
2022-08-09T03:33:22.554Z,92.90
2022-08-09T03:36:12.904Z,92.90
2022-08-09T03:38:42.145Z,92.90
2022-08-09T03:41:10.291Z,92.90
2022-08-09T03:43:42.628Z,92.90
2022-08-09T03:46:27.000Z,93.00
2022-08-09T03:48:56.940Z,93.00
2022-08-09T03:51:55.267Z,93.10
2022-08-09T03:54:13.546Z,93.10
2022-08-09T03:56:41.019Z,93.10
2022-08-09T03:59:13.515Z,93.20
2022-08-09T04:01:44.172Z,93.20
2022-08-09T04:04:14.797Z,93.20
2022-08-09T04:06:44.076Z,93.20
2022-08-09T04:09:47.865Z,93.30
2022-08-09T04:12:05.588Z,93.30
2022-08-09T04:14:53.812Z,93.50
2022-08-09T04:17:18.853Z,93.50
2022-08-09T04:19:50.990Z,93.60
2022-08-09T04:22:18.631Z,93.50
2022-08-09T04:24:48.326Z,93.50
2022-08-09T04:27:14.980Z,93.60
2022-08-09T04:29:48.644Z,93.60
2022-08-09T04:32:16.966Z,93.70
2022-08-09T04:34:54.330Z,93.70
2022-08-09T04:37:24.189Z,93.80
2022-08-09T04:40:11.677Z,93.80
2022-08-09T04:42:48.579Z,93.80
2022-08-09T04:45:16.438Z,93.80
2022-08-09T04:47:58.839Z,93.70
2022-08-09T04:50:34.807Z,93.80
2022-08-09T04:53:02.011Z,93.80
2022-08-09T04:55:37.938Z,93.90
2022-08-09T04:58:15.545Z,93.90
2022-08-09T05:00:43.144Z,93.90
2022-08-09T05:03:30.633Z,94.00
2022-08-09T05:06:06.704Z,94.00
2022-08-09T05:08:37.081Z,94.00
2022-08-09T05:11:06.695Z,94.00
2022-08-09T05:13:33.926Z,94.00
2022-08-09T05:16:05.296Z,94.10
2022-08-09T05:18:55.397Z,94.10
2022-08-09T05:21:23.127Z,94.10
2022-08-09T05:24:00.044Z,94.10
2022-08-09T05:26:36.755Z,94.10
2022-08-09T05:29:04.637Z,94.20
2022-08-09T05:31:37.023Z,94.20
2022-08-09T05:34:16.833Z,94.20
2022-08-09T05:36:46.768Z,94.20
2022-08-09T05:39:21.708Z,94.20
2022-08-09T05:41:55.984Z,94.20
2022-08-09T05:44:29.173Z,94.20
2022-08-09T05:46:59.840Z,94.20
2022-08-09T05:50:24.442Z,94.30
2022-08-09T05:52:13.083Z,94.60
2022-08-09T05:54:40.249Z,94.30
2022-08-09T05:57:07.596Z,94.20
2022-08-09T05:59:39.547Z,94.20
2022-08-09T06:02:09.077Z,94.20
2022-08-09T06:04:36.868Z,94.20
2022-08-09T06:07:11.604Z,94.20
2022-08-09T06:10:01.424Z,94.20
2022-08-09T06:12:29.276Z,94.20
2022-08-09T06:15:00.890Z,94.10
2022-08-09T06:17:39.837Z,94.20
2022-08-09T06:20:07.984Z,94.10
2022-08-09T06:22:35.207Z,94.10
2022-08-09T06:25:02.102Z,94.10
2022-08-09T06:27:42.638Z,94.00
2022-08-09T06:30:16.165Z,94.00
2022-08-09T06:33:40.139Z,94.00
2022-08-09T06:35:35.577Z,94.30
2022-08-09T06:38:17.459Z,94.00
2022-08-09T06:40:46.021Z,94.30
2022-08-09T06:43:13.513Z,94.10
2022-08-09T06:46:07.039Z,94.20
2022-08-09T06:48:30.988Z,94.10
2022-08-09T06:51:00.898Z,94.10
2022-08-09T06:53:33.196Z,94.10
2022-08-09T06:56:09.228Z,94.10
2022-08-09T07:00:47.496Z,94.10
2022-08-09T07:01:24.243Z,94.10
2022-08-09T07:03:57.846Z,94.00
2022-08-09T07:06:30.499Z,93.90
2022-08-09T07:08:57.141Z,93.90
2022-08-09T07:11:25.544Z,93.90
2022-08-09T07:14:05.155Z,93.80
2022-08-09T07:16:42.302Z,93.90
2022-08-09T07:19:18.443Z,93.90
2022-08-09T07:21:50.104Z,93.80
2022-08-09T07:24:32.577Z,93.80
2022-08-09T07:27:21.061Z,93.70
2022-08-09T07:29:58.401Z,93.70
2022-08-09T07:32:32.180Z,93.70
2022-08-09T07:35:02.501Z,93.60
2022-08-09T07:37:29.543Z,93.60
2022-08-09T07:39:56.329Z,93.50
2022-08-09T07:42:32.908Z,93.50
2022-08-09T07:45:06.315Z,93.40
2022-08-09T07:47:39.527Z,93.30
2022-08-09T07:50:20.742Z,93.20
2022-08-09T07:53:03.034Z,93.10
2022-08-09T07:56:02.924Z,93.20
2022-08-09T07:58:18.599Z,93.10
2022-08-09T08:00:59.232Z,93.00
2022-08-09T08:03:36.867Z,92.90
2022-08-09T08:06:04.362Z,92.80
2022-08-09T08:09:00.004Z,92.70
2022-08-09T08:12:09.741Z,92.60
2022-08-09T08:14:06.337Z,92.40
2022-08-09T08:16:33.266Z,92.20
2022-08-09T08:19:02.928Z,92.10
2022-08-09T08:21:31.095Z,92.10
2022-08-09T08:24:01.050Z,91.90
2022-08-09T08:26:54.528Z,91.80
2022-08-09T08:29:27.895Z,91.40
2022-08-09T08:32:02.243Z,91.40
2022-08-09T08:34:30.783Z,91.40
2022-08-09T08:37:01.378Z,91.10
2022-08-09T08:39:28.405Z,91.20
2022-08-09T08:41:55.197Z,90.50
2022-08-09T08:44:29.346Z,90.40
2022-08-09T08:46:59.934Z,89.80
2022-08-09T08:49:33.253Z,90.00
2022-08-09T08:52:09.959Z,89.50
2022-08-09T08:54:37.942Z,88.80
2022-08-09T08:57:05.660Z,88.90
2022-08-09T08:59:46.530Z,88.70
2022-08-09T09:02:30.969Z,88.00
2022-08-09T09:04:59.396Z,88.30
2022-08-09T09:07:36.740Z,87.90
2022-08-09T09:10:09.033Z,87.50
2022-08-09T09:12:36.747Z,87.10
2022-08-09T09:15:05.561Z,86.40
2022-08-09T09:17:48.159Z,86.20
2022-08-09T09:20:16.445Z,85.20
2022-08-09T09:23:03.369Z,85.70
2022-08-09T09:26:04.763Z,84.50
2022-08-09T09:28:39.153Z,82.70
2022-08-09T09:32:03.382Z,83.80
2022-08-09T09:34:14.576Z,83.80
2022-08-09T09:36:51.060Z,84.20
2022-08-09T09:39:25.577Z,84.10
2022-08-09T09:42:21.336Z,84.30
2022-08-09T09:44:54.871Z,84.40
2022-08-09T09:47:22.887Z,83.40
2022-08-09T09:50:13.812Z,83.60
2022-08-09T09:52:57.465Z,83.60
2022-08-09T09:55:31.878Z,83.30
2022-08-09T09:58:16.808Z,83.20
2022-08-09T10:00:55.330Z,82.70
2022-08-09T10:03:38.013Z,82.40
2022-08-09T10:06:06.507Z,82.50
2022-08-09T10:08:43.186Z,81.60
2022-08-09T10:11:59.351Z,81.60
2022-08-09T10:14:27.642Z,80.50
2022-08-09T10:17:11.537Z,81.00
2022-08-09T10:19:45.728Z,81.00
2022-08-09T10:22:12.606Z,79.50
2022-08-09T10:24:39.940Z,79.30
2022-08-09T10:27:10.201Z,79.90
2022-08-09T10:30:43.551Z,80.00
2022-08-09T10:32:42.857Z,79.60
2022-08-09T10:35:10.417Z,78.70
2022-08-09T10:37:40.327Z,77.90
2022-08-09T10:40:12.152Z,78.00
2022-08-09T10:42:55.917Z,77.30
2022-08-09T10:45:23.103Z,77.60
2022-08-09T10:48:25.994Z,77.20
2022-08-09T10:51:12.242Z,77.10
2022-08-09T10:53:54.666Z,76.70
2022-08-09T10:56:40.995Z,76.50
2022-08-09T10:59:55.504Z,75.70
2022-08-09T11:03:13.616Z,74.50
2022-08-09T11:05:30.009Z,74.50
2022-08-09T11:08:17.537Z,74.40
2022-08-09T11:10:54.365Z,74.70
2022-08-09T11:13:50.020Z,74.60
2022-08-09T11:16:35.349Z,74.30
2022-08-09T11:19:09.638Z,74.60
2022-08-09T11:21:57.014Z,72.40
2022-08-09T11:24:51.073Z,73.10
2022-08-09T11:28:03.535Z,73.10
2022-08-09T11:30:32.805Z,72.20
2022-08-09T11:33:05.630Z,71.50
2022-08-09T11:35:35.354Z,71.10
2022-08-09T11:38:22.293Z,71.40
2022-08-09T11:40:55.957Z,71.30
2022-08-09T11:43:26.770Z,70.90
2022-08-09T11:46:00.295Z,70.80
2022-08-09T11:48:29.847Z,71.10
2022-08-09T11:52:59.073Z,69.50
2022-08-09T11:54:01.435Z,69.40
2022-08-09T11:56:41.674Z,69.40
2022-08-09T11:59:24.068Z,69.30
2022-08-09T12:02:18.110Z,68.80
2022-08-09T12:04:44.065Z,68.30
2022-08-09T12:07:11.146Z,68.50
2022-08-09T12:09:50.267Z,67.90
2022-08-09T12:12:20.232Z,67.70
2022-08-09T12:15:07.697Z,67.20
2022-08-09T12:17:43.519Z,66.10
2022-08-09T12:20:16.505Z,65.80
2022-08-09T12:22:47.378Z,64.00
2022-08-09T12:25:18.182Z,64.10
2022-08-09T12:29:00.101Z,63.70
2022-08-09T12:30:57.610Z,63.70
2022-08-09T12:33:24.622Z,63.60
2022-08-09T12:36:05.875Z,63.50
2022-08-09T12:38:53.683Z,62.20
2022-08-09T12:41:24.255Z,62.20
2022-08-09T12:44:04.903Z,61.90
2022-08-09T12:46:34.389Z,62.50
2022-08-09T12:49:03.408Z,61.90
2022-08-09T12:51:52.655Z,61.50
2022-08-09T12:54:17.750Z,61.10
2022-08-09T12:56:51.437Z,60.70
2022-08-09T12:59:24.586Z,60.80
2022-08-09T13:02:09.610Z,61.80
2022-08-09T13:04:38.809Z,60.50
2022-08-09T13:07:11.415Z,60.80
2022-08-09T13:09:41.035Z,60.20
2022-08-09T13:12:10.161Z,58.20
2022-08-09T13:14:47.355Z,58.40
2022-08-09T13:17:43.862Z,58.30
2022-08-09T13:20:14.361Z,58.40
2022-08-09T13:23:00.946Z,57.90
2022-08-09T13:25:41.764Z,57.10
2022-08-09T13:28:14.094Z,56.50
2022-08-09T13:30:51.176Z,55.80
2022-08-09T13:33:35.924Z,56.30
2022-08-09T13:36:37.553Z,55.60
2022-08-09T13:41:20.813Z,55.40
2022-08-09T13:42:01.431Z,55.20
2022-08-09T13:44:29.018Z,55.00
2022-08-09T13:47:27.027Z,54.30
2022-08-09T13:49:55.991Z,54.40
2022-08-09T13:52:24.946Z,54.20
2022-08-09T13:54:59.974Z,54.80
2022-08-09T13:57:36.354Z,53.80
2022-08-09T14:00:12.172Z,52.10
2022-08-09T14:02:42.191Z,51.40
2022-08-09T14:05:10.198Z,51.50
2022-08-09T14:07:41.967Z,51.70
2022-08-09T14:10:17.537Z,51.60
2022-08-09T14:12:57.387Z,51.70
2022-08-09T14:16:10.526Z,51.30
2022-08-09T14:18:19.894Z,51.30
2022-08-09T14:20:54.495Z,51.40
2022-08-09T14:23:40.018Z,51.10
2022-08-09T14:26:07.771Z,51.20
2022-08-09T14:28:37.062Z,50.90
2022-08-09T14:31:03.814Z,50.90
2022-08-09T14:33:30.729Z,51.20
2022-08-09T14:36:19.527Z,51.50
2022-08-09T14:38:52.677Z,51.10
2022-08-09T14:41:23.885Z,50.60
2022-08-09T14:44:02.908Z,50.70
2022-08-09T14:46:58.879Z,50.90
2022-08-09T14:49:17.067Z,50.60
2022-08-09T14:51:43.741Z,50.00
2022-08-09T14:54:10.484Z,49.90
2022-08-09T14:56:57.476Z,49.40
2022-08-09T14:59:25.143Z,48.10
2022-08-09T15:01:53.886Z,48.10
2022-08-09T15:04:20.595Z,47.90
2022-08-09T15:06:51.397Z,48.20
2022-08-09T15:10:03.367Z,48.00
2022-08-09T15:12:08.145Z,46.80
2022-08-09T15:14:38.304Z,46.00
2022-08-09T15:17:09.194Z,45.50
2022-08-09T15:19:36.782Z,45.60
2022-08-09T15:22:03.723Z,45.10
2022-08-09T15:24:30.421Z,44.70
2022-08-09T15:26:57.760Z,44.00
2022-08-09T15:30:59.766Z,44.20
2022-08-09T15:32:29.722Z,43.50
2022-08-09T15:34:59.726Z,42.70
2022-08-09T15:37:57.477Z,41.50
2022-08-09T15:40:32.498Z,39.80
2022-08-09T15:43:00.428Z,40.10
2022-08-09T15:45:29.484Z,40.40
2022-08-09T15:48:05.137Z,39.60
2022-08-09T15:50:34.513Z,37.70
2022-08-09T15:53:17.702Z,37.30
2022-08-09T15:55:58.977Z,36.80
2022-08-09T15:58:32.989Z,35.80
2022-08-09T16:00:59.690Z,35.10
2022-08-09T16:03:29.390Z,33.90
2022-08-09T16:06:05.624Z,32.30
2022-08-09T16:08:32.260Z,31.60
2022-08-09T16:10:59.820Z,30.70
2022-08-09T16:14:05.135Z,30.80
2022-08-09T16:16:18.754Z,30.70
2022-08-09T16:18:46.232Z,31.40
2022-08-09T16:21:17.772Z,31.40
2022-08-09T16:23:55.658Z,31.00
2022-08-09T16:26:33.406Z,31.40
2022-08-09T16:29:10.767Z,31.30
2022-08-09T16:32:19.900Z,31.10
2022-08-09T16:34:29.686Z,30.40
2022-08-09T16:37:16.283Z,30.30
2022-08-09T16:39:54.507Z,30.70
2022-08-09T16:42:29.518Z,31.00
2022-08-09T16:44:56.107Z,31.40
2022-08-09T16:48:40.670Z,31.70
2022-08-09T16:50:31.927Z,32.40
2022-08-09T16:52:56.334Z,32.70
2022-08-09T16:55:23.602Z,33.40
2022-08-09T16:58:09.027Z,34.30
2022-08-09T17:00:38.799Z,35.10
2022-08-09T17:03:21.562Z,36.00
2022-08-09T17:06:07.476Z,36.20
2022-08-09T17:08:44.990Z,36.60
2022-08-09T17:11:24.622Z,36.90
2022-08-09T17:14:01.090Z,37.30
2022-08-09T17:16:28.063Z,37.80
2022-08-09T17:18:55.117Z,38.10
2022-08-09T17:21:21.918Z,38.70
2022-08-09T17:24:21.216Z,40.10
2022-08-09T17:26:37.951Z,41.40
2022-08-09T17:29:04.902Z,42.20
2022-08-09T17:31:39.070Z,42.80
2022-08-09T17:34:09.417Z,43.00
2022-08-09T17:36:54.033Z,43.10
2022-08-09T17:39:24.937Z,42.90
2022-08-09T17:41:51.955Z,43.00
2022-08-09T17:44:42.225Z,43.30
2022-08-09T17:47:05.945Z,44.10
2022-08-09T17:49:37.358Z,43.90
2022-08-09T17:52:22.496Z,44.10
2022-08-09T17:54:49.702Z,44.70
2022-08-09T17:57:20.563Z,44.80
2022-08-09T18:00:05.817Z,45.10
2022-08-09T18:02:38.940Z,45.50
2022-08-09T18:05:06.625Z,46.20
2022-08-09T18:07:39.750Z,46.00
2022-08-09T18:10:15.261Z,46.40
2022-08-09T18:13:40.621Z,46.70
2022-08-09T18:16:05.123Z,46.90
2022-08-09T18:18:25.196Z,47.10
2022-08-09T18:21:10.421Z,47.50
2022-08-09T18:24:10.847Z,48.00
2022-08-09T18:26:25.987Z,48.30
2022-08-09T18:30:39.647Z,48.40
2022-08-09T18:31:55.037Z,48.80
2022-08-09T18:34:24.228Z,49.20
2022-08-09T18:36:53.461Z,49.50
2022-08-09T18:39:22.347Z,49.80
2022-08-09T18:41:52.482Z,50.20
2022-08-09T18:44:25.656Z,50.60
2022-08-09T18:47:06.466Z,51.00
2022-08-09T18:49:43.478Z,51.30
2022-08-09T18:52:24.621Z,51.40
2022-08-09T18:54:53.354Z,51.90
2022-08-09T18:57:22.025Z,52.10
2022-08-09T18:59:57.845Z,52.30
2022-08-09T19:02:30.658Z,52.60
2022-08-09T19:05:14.518Z,52.90
2022-08-09T19:08:04.426Z,53.00
2022-08-09T19:10:37.592Z,53.30
2022-08-09T19:13:19.405Z,53.60
2022-08-09T19:15:49.409Z,53.80
2022-08-09T19:18:37.365Z,54.00
2022-08-09T19:21:05.510Z,54.30
2022-08-09T19:24:33.463Z,54.50
2022-08-09T19:26:31.164Z,54.70
2022-08-09T19:29:01.725Z,55.00
2022-08-09T19:31:44.911Z,55.20
2022-08-09T19:34:21.450Z,55.40
2022-08-09T19:36:53.373Z,55.70
2022-08-09T19:39:43.760Z,55.90
2022-08-09T19:42:07.150Z,56.20
2022-08-09T19:44:33.904Z,56.30
2022-08-09T19:47:01.550Z,56.70
2022-08-09T19:50:06.998Z,56.80
2022-08-09T19:52:15.512Z,57.00
2022-08-09T19:54:48.455Z,57.20
2022-08-09T19:57:17.321Z,57.50
2022-08-09T20:00:05.652Z,57.60
2022-08-09T20:04:26.290Z,57.80
2022-08-09T20:05:24.941Z,58.10
2022-08-09T20:07:59.377Z,58.30
2022-08-09T20:10:36.327Z,58.50
2022-08-09T20:13:05.119Z,58.80
2022-08-09T20:16:37.680Z,58.90
2022-08-09T20:18:19.680Z,59.20
2022-08-09T20:20:46.705Z,59.50
2022-08-09T20:23:13.374Z,59.70
2022-08-09T20:25:51.279Z,60.00
2022-08-09T20:28:24.524Z,60.40
2022-08-09T20:31:02.601Z,60.60
2022-08-09T20:33:40.906Z,60.90
2022-08-09T20:36:11.322Z,61.20
2022-08-09T20:39:04.298Z,61.30
2022-08-09T20:41:35.489Z,61.50
2022-08-09T20:44:05.070Z,61.70
2022-08-09T20:46:43.187Z,62.00
2022-08-09T20:49:12.387Z,62.10
2022-08-09T20:51:41.726Z,62.30
2022-08-09T20:54:10.573Z,62.50
2022-08-09T20:56:47.271Z,62.70
2022-08-09T20:59:17.531Z,63.00
2022-08-09T21:01:53.663Z,63.10
2022-08-09T21:05:52.733Z,63.30
2022-08-09T21:07:12.043Z,63.30
2022-08-09T21:09:56.836Z,63.80
2022-08-09T21:15:13.639Z,63.50
2022-08-09T21:18:22.399Z,63.60
2022-08-09T21:20:29.801Z,63.80
2022-08-09T21:22:57.594Z,63.90
2022-08-09T21:25:44.040Z,64.10
2022-08-09T21:28:34.894Z,64.10
2022-08-09T21:31:17.669Z,64.20
2022-08-09T21:33:51.289Z,64.90
2022-08-09T21:36:23.070Z,63.90
2022-08-09T21:38:57.751Z,63.80
2022-08-09T21:41:59.803Z,63.80
2022-08-09T21:44:12.779Z,63.80
2022-08-09T21:46:42.249Z,63.80
2022-08-09T21:49:09.810Z,63.70
2022-08-09T21:51:43.730Z,63.80
2022-08-09T21:54:12.150Z,63.60
2022-08-09T21:56:44.509Z,63.60
2022-08-09T21:59:23.152Z,63.50
2022-08-09T22:02:00.445Z,63.60
2022-08-09T22:04:55.757Z,63.60
2022-08-09T22:07:35.298Z,63.80
2022-08-09T22:10:03.068Z,63.80
2022-08-09T22:12:31.291Z,64.00
2022-08-09T22:14:58.732Z,64.10
2022-08-09T22:17:25.438Z,64.00
2022-08-09T22:19:59.806Z,64.10
2022-08-09T22:22:27.500Z,64.20
2022-08-09T22:26:07.518Z,64.30
2022-08-09T22:27:40.878Z,64.30
2022-08-09T22:30:09.085Z,64.30
2022-08-09T22:32:35.681Z,64.50
2022-08-09T22:35:06.712Z,64.70
2022-08-09T22:38:06.854Z,64.80
2022-08-09T22:40:34.836Z,64.80
2022-08-09T22:43:16.169Z,64.90
2022-08-09T22:48:13.618Z,64.90
2022-08-09T22:48:36.308Z,65.00
2022-08-09T22:51:10.302Z,65.10
2022-08-09T22:53:44.425Z,65.30
2022-08-09T22:56:31.342Z,65.30
2022-08-09T22:59:05.715Z,65.50
2022-08-09T23:01:48.821Z,65.40
2022-08-09T23:04:15.618Z,65.60
2022-08-09T23:07:02.737Z,65.80
2022-08-09T23:09:29.685Z,66.00
2022-08-09T23:11:57.378Z,66.10
2022-08-09T23:14:30.333Z,66.30
2022-08-09T23:17:04.400Z,66.60
2022-08-09T23:19:31.062Z,66.70
2022-08-09T23:22:17.713Z,66.90
2022-08-09T23:24:44.476Z,67.00
2022-08-09T23:27:15.538Z,67.00
2022-08-09T23:29:42.337Z,67.10
2022-08-09T23:32:09.012Z,67.30
2022-08-09T23:34:36.651Z,67.40
2022-08-09T23:37:04.416Z,67.50
2022-08-09T23:39:31.087Z,67.70
2022-08-09T23:41:57.791Z,67.70
2022-08-09T23:44:24.450Z,67.70
2022-08-09T23:46:52.874Z,67.80
2022-08-09T23:49:25.043Z,68.00
2022-08-09T23:51:52.344Z,68.20
2022-08-09T23:54:19.816Z,68.20
2022-08-09T23:56:54.203Z,68.30
2022-08-09T23:59:22.717Z,68.50
